createdAt,value
2018-06-03T00:00:12.925Z,20.66
2018-06-03T00:01:22.947Z,20.63
2018-06-03T00:02:32.698Z,20.7
2018-06-03T00:03:42.520Z,20.7
2018-06-03T00:04:52.267Z,20.7
2018-06-03T00:06:02.286Z,20.66
2018-06-03T00:07:11.765Z,20.64
2018-06-03T00:08:21.523Z,20.64
2018-06-03T00:09:31.535Z,20.63
2018-06-03T00:10:41.285Z,20.63
2018-06-03T00:11:51.306Z,20.58
2018-06-03T00:13:01.326Z,20.59
2018-06-03T00:14:11.077Z,20.59
2018-06-03T00:15:20.843Z,20.5
2018-06-03T00:16:30.065Z,20.56
2018-06-03T00:17:39.821Z,20.48
2018-06-03T00:18:49.837Z,20.52
2018-06-03T00:19:59.330Z,20.49
2018-06-03T00:21:09.102Z,20.49
2018-06-03T00:22:19.125Z,20.49
2018-06-03T00:23:29.158Z,20.49
2018-06-03T00:24:39.176Z,20.46
2018-06-03T00:25:49.191Z,20.46
2018-06-03T00:26:59.216Z,20.46
2018-06-03T00:28:09.234Z,20.44
2018-06-03T00:29:18.994Z,20.32
2018-06-03T00:30:28.745Z,20.24
2018-06-03T00:31:38.761Z,20.26
2018-06-03T00:32:48.794Z,20.34
2018-06-03T00:33:58.819Z,20.26
2018-06-03T00:35:08.576Z,20.18
2018-06-03T00:36:18.357Z,20.21
2018-06-03T00:37:28.389Z,20.15
2018-06-03T00:38:38.139Z,20.21
2018-06-03T00:39:47.352Z,20.11
2018-06-03T00:40:57.100Z,20.12
2018-06-03T00:42:06.591Z,20.04
2018-06-03T00:43:16.069Z,20.1
2018-06-03T00:44:26.085Z,20.11
2018-06-03T00:45:35.564Z,20.08
2018-06-03T00:46:45.684Z,20.02
2018-06-03T00:47:55.167Z,19.99
2018-06-03T00:49:04.385Z,19.97
2018-06-03T00:50:14.138Z,19.93
2018-06-03T00:51:23.889Z,19.94
2018-06-03T00:52:33.635Z,19.93
2018-06-03T00:53:43.659Z,19.85
2018-06-03T00:54:53.725Z,19.9
2018-06-03T00:56:03.206Z,19.92
2018-06-03T00:57:12.950Z,19.81
2018-06-03T00:58:22.978Z,19.92
2018-06-03T00:59:32.725Z,19.84
2018-06-03T01:00:42.477Z,19.81
2018-06-03T01:01:52.506Z,19.79
2018-06-03T01:03:01.988Z,19.79
2018-06-03T01:04:11.739Z,19.87
2018-06-03T01:05:21.501Z,19.82
2018-06-03T01:06:30.717Z,19.82
2018-06-03T01:07:40.474Z,19.79
2018-06-03T01:08:49.966Z,19.74
2018-06-03T01:09:59.718Z,19.82
2018-06-03T01:11:09.473Z,19.81
2018-06-03T01:12:19.491Z,19.78
2018-06-03T01:13:29.510Z,19.78
2018-06-03T01:14:39.261Z,19.79
2018-06-03T01:15:48.743Z,19.72
2018-06-03T01:16:58.240Z,19.7
2018-06-03T01:18:07.989Z,19.63
2018-06-03T01:19:18.015Z,19.63
2018-06-03T01:20:27.773Z,19.7
2018-06-03T01:21:37.309Z,19.59
2018-06-03T01:22:47.331Z,19.59
2018-06-03T01:23:57.087Z,19.6
2018-06-03T01:25:07.107Z,19.59
2018-06-03T01:26:17.148Z,19.62
2018-06-03T01:27:27.172Z,19.57
2018-06-03T01:28:37.197Z,19.49
2018-06-03T01:29:47.216Z,19.55
2018-06-03T01:30:56.972Z,19.47
2018-06-03T01:32:06.721Z,19.45
2018-06-03T01:33:16.479Z,19.44
2018-06-03T01:34:26.493Z,19.44
2018-06-03T01:35:35.971Z,19.34
2018-06-03T01:36:45.989Z,19.39
2018-06-03T01:37:56.020Z,19.34
2018-06-03T01:39:05.772Z,19.34
2018-06-03T01:40:15.788Z,19.39
2018-06-03T01:41:25.803Z,19.23
2018-06-03T01:42:35.824Z,19.34
2018-06-03T01:43:45.575Z,19.24
2018-06-03T01:44:55.638Z,19.38
2018-06-03T01:46:05.393Z,19.22
2018-06-03T01:47:15.139Z,19.23
2018-06-03T01:48:25.165Z,19.24
2018-06-03T01:49:35.193Z,19.35
2018-06-03T01:50:45.211Z,19.27
2018-06-03T01:51:54.965Z,19.24
2018-06-03T01:53:04.980Z,19.22
2018-06-03T01:54:14.463Z,19.24
2018-06-03T01:55:24.512Z,19.19
2018-06-03T01:56:34.556Z,19.09
2018-06-03T01:57:44.585Z,19.08
2018-06-03T01:58:54.604Z,19.15
2018-06-03T02:00:04.620Z,19.2
2018-06-03T02:01:14.374Z,19.12
2018-06-03T02:02:27.472Z,19.09
2018-06-03T02:03:37.243Z,19.19
2018-06-03T02:04:46.456Z,19.15
2018-06-03T02:05:56.203Z,19.15
2018-06-03T02:07:06.219Z,19.11
2018-06-03T02:08:16.236Z,19.16
2018-06-03T02:09:26.256Z,19.16
2018-06-03T02:10:36.010Z,19.11
2018-06-03T02:11:46.031Z,19.11
2018-06-03T02:12:56.054Z,19.11
2018-06-03T02:14:05.807Z,19.11
2018-06-03T02:15:15.829Z,19.05
2018-06-03T02:16:25.845Z,19
2018-06-03T02:17:35.596Z,19.05
2018-06-03T02:18:45.355Z,18.96
2018-06-03T02:19:55.373Z,19
2018-06-03T02:21:04.877Z,18.89
2018-06-03T02:22:14.900Z,19.01
2018-06-03T02:23:24.651Z,18.97
2018-06-03T02:24:34.136Z,18.91
2018-06-03T02:25:44.202Z,18.89
2018-06-03T02:26:53.948Z,18.82
2018-06-03T02:28:03.696Z,18.81
2018-06-03T02:29:13.182Z,18.81
2018-06-03T02:30:23.264Z,18.74
2018-06-03T02:31:33.637Z,18.78
2018-06-03T02:32:43.672Z,18.78
2018-06-03T02:33:53.429Z,18.73
2018-06-03T02:35:03.199Z,18.74
2018-06-03T02:36:12.950Z,18.78
2018-06-03T02:37:22.551Z,18.76
2018-06-03T02:38:32.591Z,18.71
2018-06-03T02:39:42.635Z,18.73
2018-06-03T02:40:52.673Z,18.71
2018-06-03T02:42:02.428Z,18.68
2018-06-03T02:43:12.064Z,18.71
2018-06-03T02:44:22.088Z,18.63
2018-06-03T02:45:31.864Z,18.71
2018-06-03T02:46:41.900Z,18.66
2018-06-03T02:47:51.654Z,18.58
2018-06-03T02:49:01.144Z,18.58
2018-06-03T02:50:10.635Z,18.64
2018-06-03T02:51:20.667Z,18.63
2018-06-03T02:52:30.715Z,18.57
2018-06-03T02:53:40.753Z,18.55
2018-06-03T02:54:50.511Z,18.57
2018-06-03T02:55:59.743Z,18.61
2018-06-03T02:57:09.499Z,18.55
2018-06-03T02:58:19.254Z,18.48
2018-06-03T02:59:29.034Z,18.49
2018-06-03T03:03:25.231Z,18.31
2018-06-03T03:04:35.269Z,18.49
2018-06-03T03:05:44.752Z,18.41
2018-06-03T03:06:54.776Z,18.55
2018-06-03T03:08:04.821Z,18.51
2018-06-03T03:09:14.837Z,18.42
2018-06-03T03:10:24.594Z,18.3
2018-06-03T03:11:34.361Z,18.36
2018-06-03T03:12:44.115Z,18.3
2018-06-03T03:13:53.865Z,18.28
2018-06-03T03:15:03.631Z,18.33
2018-06-03T03:16:13.116Z,18.23
2018-06-03T03:17:22.870Z,18.28
2018-06-03T03:18:32.884Z,18.24
2018-06-03T03:19:42.906Z,18.31
2018-06-03T03:20:52.703Z,18.34
2018-06-03T03:22:02.451Z,18.26
2018-06-03T03:23:12.469Z,18.36
2018-06-03T03:24:22.243Z,18.31
2018-06-03T03:25:31.999Z,18.39
2018-06-03T03:26:41.743Z,18.42
2018-06-03T03:27:51.538Z,18.28
2018-06-03T03:29:01.026Z,18.3
2018-06-03T03:30:10.780Z,18.46
2018-06-03T03:31:20.542Z,18.33
2018-06-03T03:32:30.560Z,18.43
2018-06-03T03:33:40.575Z,18.45
2018-06-03T03:34:50.323Z,18.37
2018-06-03T03:36:00.342Z,18.46
2018-06-03T03:37:10.360Z,18.33
2018-06-03T03:38:20.122Z,18.51
2018-06-03T03:39:30.147Z,18.31
2018-06-03T03:40:40.157Z,18.41
2018-06-03T03:41:49.900Z,18.46
2018-06-03T03:42:59.920Z,18.42
2018-06-03T03:44:09.402Z,18.49
2018-06-03T03:45:19.415Z,18.43
2018-06-03T03:46:29.437Z,18.46
2018-06-03T03:47:39.456Z,18.48
2018-06-03T03:48:49.470Z,18.45
2018-06-03T03:49:59.482Z,18.48
2018-06-03T03:51:09.500Z,18.51
2018-06-03T03:52:19.520Z,18.58
2018-06-03T03:53:28.999Z,18.57
2018-06-03T03:54:39.023Z,18.49
2018-06-03T03:55:48.509Z,18.53
2018-06-03T03:56:58.256Z,18.58
2018-06-03T03:58:08.009Z,18.55
2018-06-03T03:59:17.758Z,18.52
2018-06-03T04:00:27.503Z,18.55
2018-06-03T04:01:37.256Z,18.61
2018-06-03T04:02:47.002Z,18.63
2018-06-03T04:03:57.019Z,18.57
2018-06-03T04:05:06.771Z,18.67
2018-06-03T04:06:16.789Z,18.66
2018-06-03T04:07:26.909Z,18.7
2018-06-03T04:08:36.936Z,18.68
2018-06-03T04:09:46.957Z,18.78
2018-06-03T04:10:56.967Z,18.68
2018-06-03T04:12:06.732Z,18.76
2018-06-03T04:13:16.655Z,18.74
2018-06-03T04:14:26.192Z,18.73
2018-06-03T04:15:35.679Z,18.78
2018-06-03T04:16:45.428Z,18.82
2018-06-03T04:17:55.181Z,18.79
2018-06-03T04:19:04.940Z,18.83
2018-06-03T04:20:14.690Z,18.88
2018-06-03T04:21:24.439Z,18.85
2018-06-03T04:22:34.189Z,18.91
2018-06-03T04:23:43.938Z,18.96
2018-06-03T04:24:53.955Z,18.89
2018-06-03T04:26:03.970Z,19.01
2018-06-03T04:27:13.995Z,18.91
2018-06-03T04:28:24.059Z,19
2018-06-03T04:29:33.805Z,19
2018-06-03T04:30:43.552Z,19
2018-06-03T04:31:53.567Z,18.92
2018-06-03T04:33:03.330Z,19.01
2018-06-03T04:34:13.345Z,19.07
2018-06-03T04:35:23.364Z,19.09
2018-06-03T04:36:33.431Z,19.05
2018-06-03T04:37:43.179Z,19.12
2018-06-03T04:38:53.193Z,19.16
2018-06-03T04:40:02.947Z,19.19
2018-06-03T04:41:12.786Z,19.16
2018-06-03T04:42:22.234Z,19.11
2018-06-03T04:43:31.980Z,19.15
2018-06-03T04:44:41.731Z,19.2
2018-06-03T04:45:51.745Z,19.11
2018-06-03T04:47:01.767Z,19
2018-06-03T04:48:11.528Z,19.15
2018-06-03T04:49:21.539Z,19.19
2018-06-03T04:50:30.750Z,19.19
2018-06-03T04:51:40.239Z,19.19
2018-06-03T04:52:49.993Z,19.08
2018-06-03T04:54:00.017Z,19.12
2018-06-03T04:55:09.885Z,19.09
2018-06-03T04:56:19.643Z,19.17
2018-06-03T04:57:29.665Z,19.23
2018-06-03T04:58:39.146Z,19.22
2018-06-03T04:59:48.893Z,19.27
2018-06-03T05:00:58.372Z,19.24
2018-06-03T05:02:08.120Z,19.11
2018-06-03T05:03:17.864Z,19.27
2018-06-03T05:04:27.613Z,19.32
2018-06-03T05:05:37.368Z,19.23
2018-06-03T05:06:47.388Z,19.27
2018-06-03T05:07:57.405Z,19.3
2018-06-03T05:09:07.160Z,19.23
2018-06-03T05:10:17.173Z,19.24
2018-06-03T05:11:27.190Z,19.19
2018-06-03T05:12:37.205Z,19.2
2018-06-03T05:13:46.961Z,19.27
2018-06-03T05:14:56.174Z,19.32
2018-06-03T05:16:06.192Z,19.24
2018-06-03T05:17:15.947Z,19.39
2018-06-03T05:18:25.991Z,19.38
2018-06-03T05:19:36.009Z,19.3
2018-06-03T05:20:45.755Z,19.3
2018-06-03T05:21:55.773Z,19.35
2018-06-03T05:23:04.994Z,19.27
2018-06-03T05:24:14.734Z,19.39
2018-06-03T05:25:24.479Z,19.26
2018-06-03T05:26:34.500Z,19.37
2018-06-03T05:27:44.518Z,19.38
2018-06-03T05:28:54.273Z,19.45
2018-06-03T05:30:04.021Z,19.41
2018-06-03T05:31:14.043Z,19.47
2018-06-03T05:32:23.524Z,19.45
2018-06-03T05:33:33.005Z,19.52
2018-06-03T05:34:43.020Z,19.45
2018-06-03T05:35:52.769Z,19.44
2018-06-03T05:37:02.514Z,19.55
2018-06-03T05:38:11.728Z,19.55
2018-06-03T05:39:21.749Z,19.53
2018-06-03T05:40:31.774Z,19.62
2018-06-03T05:41:41.805Z,19.6
2018-06-03T05:42:51.551Z,19.6
2018-06-03T05:44:01.299Z,19.63
2018-06-03T05:45:11.048Z,19.71
2018-06-03T05:46:21.068Z,19.6
2018-06-03T05:47:31.082Z,19.75
2018-06-03T05:48:41.094Z,19.75
2018-06-03T05:49:50.575Z,19.82
2018-06-03T05:51:00.320Z,19.84
2018-06-03T05:52:10.064Z,19.9
2018-06-03T05:53:19.808Z,19.92
2018-06-03T05:54:29.570Z,19.93
2018-06-03T05:55:39.586Z,19.84
2018-06-03T05:56:49.668Z,19.93
2018-06-03T05:57:59.689Z,19.94
2018-06-03T05:59:09.440Z,19.97
2018-06-03T06:00:19.452Z,19.93
2018-06-03T06:01:28.945Z,20.08
2018-06-03T06:02:38.960Z,19.99
2018-06-03T06:03:48.445Z,20.08
2018-06-03T06:04:57.926Z,20.04
2018-06-03T06:06:07.137Z,19.99
2018-06-03T06:07:16.626Z,20.04
2018-06-03T06:08:26.379Z,20.04
2018-06-03T06:09:36.387Z,20.1
2018-06-03T06:10:46.138Z,20.1
2018-06-03T06:11:56.155Z,20.11
2018-06-03T06:13:05.905Z,20.19
2018-06-03T06:14:15.386Z,20.22
2018-06-03T06:15:25.450Z,20.24
2018-06-03T06:16:34.930Z,20.26
2018-06-03T06:17:44.942Z,20.27
2018-06-03T06:18:54.419Z,20.34
2018-06-03T06:20:04.493Z,20.36
2018-06-03T06:21:14.328Z,20.33
2018-06-03T06:22:24.081Z,20.37
2018-06-03T06:23:34.101Z,20.4
2018-06-03T06:24:43.844Z,20.56
2018-06-03T06:25:53.865Z,20.55
2018-06-03T06:27:03.879Z,20.58
2018-06-03T06:28:13.630Z,20.67
2018-06-03T06:29:24.968Z,20.64
2018-06-03T06:30:34.467Z,20.66
2018-06-03T06:31:44.489Z,20.75
2018-06-03T06:32:53.983Z,20.8
2018-06-03T06:34:03.728Z,20.73
2018-06-03T06:35:13.214Z,20.85
2018-06-03T06:36:23.341Z,20.93
2018-06-03T06:37:33.470Z,20.92
2018-06-03T06:38:43.326Z,20.95
2018-06-03T06:39:53.352Z,20.92
2018-06-03T06:41:03.106Z,21.07
2018-06-03T06:42:12.863Z,20.93
2018-06-03T06:43:22.881Z,20.93
2018-06-03T06:44:32.632Z,20.83
2018-06-03T06:45:42.657Z,20.89
2018-06-03T06:46:52.407Z,20.83
2018-06-03T06:48:02.428Z,20.77
2018-06-03T06:49:11.915Z,20.78
2018-06-03T06:50:21.938Z,20.92
2018-06-03T06:51:31.962Z,20.93
2018-06-03T06:52:41.709Z,21
2018-06-03T06:53:51.475Z,21.03
2018-06-03T06:55:01.234Z,21.05
2018-06-03T06:56:11.018Z,21.08
2018-06-03T06:57:21.164Z,21.01
2018-06-03T06:58:30.949Z,21.11
2018-06-03T06:59:40.702Z,21.03
2018-06-03T07:00:50.717Z,21.03
2018-06-03T07:02:00.201Z,21.15
2018-06-03T07:03:09.685Z,21.22
2018-06-03T07:04:19.441Z,21.2
2018-06-03T07:05:29.471Z,21.33
2018-06-03T07:06:39.396Z,21.41
2018-06-03T07:07:48.945Z,21.43
2018-06-03T07:08:58.168Z,21.53
2018-06-03T07:10:07.915Z,21.56
2018-06-03T07:11:17.395Z,21.63
2018-06-03T07:12:27.149Z,21.74
2018-06-03T07:13:36.909Z,21.72
2018-06-03T07:14:46.666Z,21.81
2018-06-03T07:15:56.423Z,21.84
2018-06-03T07:17:06.193Z,21.74
2018-06-03T07:18:15.945Z,21.78
2018-06-03T07:19:25.964Z,21.74
2018-06-03T07:20:35.988Z,21.81
2018-06-03T07:21:45.479Z,21.7
2018-06-03T07:22:55.499Z,21.78
2018-06-03T07:24:05.267Z,21.78
2018-06-03T07:25:15.018Z,21.72
2018-06-03T07:26:24.773Z,21.75
2018-06-03T07:27:34.531Z,21.74
2018-06-03T07:28:44.290Z,21.78
2018-06-03T07:29:54.066Z,21.78
2018-06-03T07:31:03.547Z,21.83
2018-06-03T07:32:13.159Z,21.97
2018-06-03T07:33:22.921Z,21.91
2018-06-03T07:34:32.969Z,21.94
2018-06-03T07:35:42.999Z,22.03
2018-06-03T07:36:53.018Z,21.96
2018-06-03T07:38:03.031Z,21.99
2018-06-03T07:39:13.048Z,22.06
2018-06-03T07:40:22.809Z,22.1
2018-06-03T07:41:32.288Z,22.19
2018-06-03T07:42:42.042Z,22.21
2018-06-03T07:43:52.072Z,22.18
2018-06-03T07:45:01.829Z,22.19
2018-06-03T07:46:11.314Z,22.22
2018-06-03T07:47:21.066Z,22.16
2018-06-03T07:48:31.083Z,22.19
2018-06-03T07:49:41.102Z,22.21
2018-06-03T07:50:50.850Z,22.3
2018-06-03T07:52:00.344Z,22.33
2018-06-03T07:53:10.099Z,22.31
2018-06-03T07:54:20.121Z,22.51
2018-06-03T07:55:30.139Z,22.52
2018-06-03T07:56:39.895Z,22.55
2018-06-03T07:57:49.648Z,22.71
2018-06-03T07:58:59.668Z,22.86
2018-06-03T08:00:09.156Z,22.8
2018-06-03T08:01:19.247Z,22.91
2018-06-03T08:02:29.272Z,22.93
2018-06-03T08:03:39.298Z,22.92
2018-06-03T08:04:49.049Z,22.96
2018-06-03T08:05:58.873Z,23.02
2018-06-03T08:07:09.125Z,23.07
2018-06-03T08:08:19.147Z,23.17
2018-06-03T08:09:28.909Z,23.16
2018-06-03T08:10:38.665Z,23.23
2018-06-03T08:11:48.688Z,23.29
2018-06-03T08:12:58.715Z,23.37
2018-06-03T08:14:08.740Z,23.47
2018-06-03T08:15:18.767Z,23.28
2018-06-03T08:16:28.254Z,23.14
2018-06-03T08:17:38.058Z,23.02
2018-06-03T08:18:48.078Z,23.01
2018-06-03T08:19:57.831Z,22.89
2018-06-03T08:21:07.609Z,22.96
2018-06-03T08:22:17.362Z,22.89
2018-06-03T08:23:27.394Z,22.84
2018-06-03T08:24:37.424Z,22.91
2018-06-03T08:25:47.443Z,22.89
2018-06-03T08:26:57.464Z,22.8
2018-06-03T08:28:07.218Z,22.67
2018-06-03T08:29:16.973Z,22.7
2018-06-03T08:30:26.462Z,22.74
2018-06-03T08:31:35.947Z,22.81
2018-06-03T08:32:45.973Z,22.89
2018-06-03T08:33:55.731Z,22.98
2018-06-03T08:35:05.748Z,22.91
2018-06-03T08:36:15.509Z,22.93
2018-06-03T08:37:25.528Z,22.8
2018-06-03T08:38:35.544Z,22.95
2018-06-03T08:39:45.562Z,23.04
2018-06-03T08:40:55.316Z,23.13
2018-06-03T08:42:04.540Z,23.17
2018-06-03T08:43:14.306Z,23.21
2018-06-03T08:44:24.064Z,23.33
2018-06-03T08:45:33.826Z,23.32
2018-06-03T08:46:43.309Z,23.25
2018-06-03T08:47:53.062Z,23.23
2018-06-03T08:49:02.866Z,23.26
2018-06-03T08:50:12.893Z,23.17
2018-06-03T08:51:22.387Z,23.14
2018-06-03T08:52:32.142Z,23.25
2018-06-03T08:53:41.898Z,23.28
2018-06-03T08:54:51.915Z,23.26
2018-06-03T08:56:01.675Z,23.25
2018-06-03T08:57:11.427Z,23.36
2018-06-03T08:58:21.179Z,23.44
2018-06-03T08:59:31.207Z,23.42
2018-06-03T09:00:40.977Z,23.39
2018-06-03T09:01:50.733Z,23.51
2018-06-03T09:03:00.484Z,23.54
2018-06-03T09:04:10.231Z,23.62
2018-06-03T09:05:19.984Z,23.69
2018-06-03T09:06:30.028Z,23.84
2018-06-03T09:07:39.810Z,23.85
2018-06-03T09:08:49.832Z,23.99
2018-06-03T09:09:59.419Z,23.89
2018-06-03T09:11:08.909Z,23.89
2018-06-03T09:12:18.928Z,23.94
2018-06-03T09:13:28.684Z,24
2018-06-03T09:14:38.178Z,24.03
2018-06-03T09:15:47.943Z,24.09
2018-06-03T09:16:57.436Z,24.13
2018-06-03T09:18:06.927Z,24.25
2018-06-03T09:19:16.427Z,24.36
2018-06-03T09:20:26.459Z,24.5
2018-06-03T09:21:36.482Z,24.51
2018-06-03T09:22:46.246Z,24.56
2018-06-03T09:23:56.273Z,24.68
2018-06-03T09:25:06.377Z,24.78
2018-06-03T09:26:16.290Z,24.86
2018-06-03T09:27:26.051Z,24.88
2018-06-03T09:28:36.076Z,24.99
2018-06-03T09:29:45.832Z,25.09
2018-06-03T09:30:55.588Z,25.11
2018-06-03T09:32:05.614Z,25.24
2018-06-03T09:33:14.830Z,25.39
2018-06-03T09:34:24.318Z,25.4
2018-06-03T09:35:34.356Z,25.39
2018-06-03T09:36:44.112Z,25.48
2018-06-03T09:37:53.880Z,25.55
2018-06-03T09:39:03.638Z,25.61
2018-06-03T09:40:13.393Z,25.67
2018-06-03T09:41:23.149Z,25.77
2018-06-03T09:42:32.934Z,25.76
2018-06-03T09:43:42.686Z,25.91
2018-06-03T09:44:52.443Z,25.96
2018-06-03T09:46:02.198Z,25.95
2018-06-03T09:47:12.220Z,25.98
2018-06-03T09:48:21.711Z,25.77
2018-06-03T09:49:31.202Z,25.99
2018-06-03T09:50:40.689Z,25.95
2018-06-03T09:51:50.444Z,26.01
2018-06-03T09:53:00.536Z,25.78
2018-06-03T09:54:10.034Z,25.56
2018-06-03T09:55:20.056Z,25.44
2018-06-03T09:56:29.279Z,25.31
2018-06-03T09:57:39.299Z,25.3
2018-06-03T09:58:49.050Z,25.18
2018-06-03T09:59:58.541Z,25.26
2018-06-03T10:01:08.033Z,25.24
2018-06-03T10:02:17.853Z,25.26
2018-06-03T10:03:27.603Z,25.22
2018-06-03T10:04:37.634Z,25.3
2018-06-03T10:05:47.121Z,25.44
2018-06-03T10:06:56.879Z,25.52
2018-06-03T10:08:06.148Z,25.67
2018-06-03T10:09:16.173Z,25.76
2018-06-03T10:10:26.200Z,25.86
2018-06-03T10:11:35.961Z,25.96
2018-06-03T10:12:45.446Z,26.11
2018-06-03T10:13:55.467Z,26.08
2018-06-03T10:15:05.496Z,26.24
2018-06-03T10:16:15.781Z,26.31
2018-06-03T10:17:25.858Z,26.44
2018-06-03T10:18:35.893Z,26.46
2018-06-03T10:19:45.652Z,26.59
2018-06-03T10:20:55.671Z,26.63
2018-06-03T10:22:05.694Z,26.7
2018-06-03T10:23:15.450Z,26.71
2018-06-03T10:24:25.474Z,26.91
2018-06-03T10:25:35.494Z,26.85
2018-06-03T10:26:44.981Z,27.04
2018-06-03T10:27:55.002Z,27.04
2018-06-03T10:29:04.225Z,27.16
2018-06-03T10:30:13.978Z,27.23
2018-06-03T10:31:24.014Z,27.25
2018-06-03T10:32:33.776Z,27.33
2018-06-03T10:33:43.348Z,27.33
2018-06-03T10:34:53.214Z,27.45
2018-06-03T10:36:03.241Z,27.52
2018-06-03T10:37:13.004Z,27.53
2018-06-03T10:38:22.761Z,27.57
2018-06-03T10:39:32.528Z,27.6
2018-06-03T10:40:42.022Z,27.79
2018-06-03T10:41:52.051Z,27.81
2018-06-03T10:43:02.078Z,27.82
2018-06-03T10:44:11.297Z,27.9
2018-06-03T10:45:21.059Z,27.9
2018-06-03T10:46:30.815Z,27.95
2018-06-03T10:47:40.838Z,28.01
2018-06-03T10:48:50.607Z,28.03
2018-06-03T10:50:00.630Z,28.23
2018-06-03T10:51:10.116Z,28.18
2018-06-03T10:52:20.165Z,28.23
2018-06-03T10:53:30.196Z,28.3
2018-06-03T10:54:40.068Z,28.37
2018-06-03T10:55:50.088Z,28.38
2018-06-03T10:57:00.116Z,28.41
2018-06-03T10:58:09.873Z,28.47
2018-06-03T10:59:19.893Z,28.59
2018-06-03T11:00:29.389Z,28.62
2018-06-03T11:01:39.415Z,28.7
2018-06-03T11:02:49.166Z,28.72
2018-06-03T11:03:58.981Z,28.78
2018-06-03T11:05:08.467Z,28.89
2018-06-03T11:06:18.230Z,28.86
2018-06-03T11:07:27.990Z,29.02
2018-06-03T11:08:38.011Z,29.02
2018-06-03T11:09:48.039Z,29.12
2018-06-03T11:10:58.067Z,29.24
2018-06-03T11:12:07.556Z,29.18
2018-06-03T11:13:17.591Z,29.24
2018-06-03T11:14:27.624Z,29.21
2018-06-03T11:15:37.656Z,29.27
2018-06-03T11:16:47.466Z,29.34
2018-06-03T11:17:57.225Z,29.35
2018-06-03T11:19:07.294Z,29.39
2018-06-03T11:20:17.051Z,29.44
2018-06-03T11:21:27.073Z,29.58
2018-06-03T11:22:37.106Z,29.68
2018-06-03T11:23:46.963Z,29.58
2018-06-03T11:24:56.986Z,29.65
2018-06-03T11:26:06.477Z,29.76
2018-06-03T11:27:16.234Z,29.67
2018-06-03T11:28:26.263Z,29.65
2018-06-03T11:29:36.023Z,29.86
2018-06-03T11:30:46.046Z,30.1
2018-06-03T11:31:56.070Z,30.32
2018-06-03T11:33:05.841Z,30.69
2018-06-03T11:34:15.882Z,30.98
2018-06-03T11:35:25.908Z,31.42
2018-06-03T11:36:35.671Z,31.89
2018-06-03T11:37:44.893Z,32.42
2018-06-03T11:38:54.386Z,32.95
2018-06-03T11:40:04.146Z,33.45
2018-06-03T11:41:14.195Z,33.89
2018-06-03T11:42:23.960Z,34.46
2018-06-03T11:43:33.984Z,34.88
2018-06-03T11:44:43.740Z,35.39
2018-06-03T11:45:53.506Z,35.63
2018-06-03T11:47:03.590Z,35.94
2018-06-03T11:48:13.357Z,36.26
2018-06-03T11:49:22.848Z,36.55
2018-06-03T11:50:32.883Z,36.6
2018-06-03T11:51:42.742Z,36.88
2018-06-03T11:52:52.503Z,37.21
2018-06-03T11:54:02.542Z,37.34
2018-06-03T11:55:12.312Z,37.47
2018-06-03T11:56:22.351Z,37.5
2018-06-03T11:57:31.885Z,37.72
2018-06-03T11:58:41.923Z,37.71
2018-06-03T11:59:51.969Z,37.97
2018-06-03T12:01:01.471Z,38.27
2018-06-03T12:02:11.231Z,38.58
2018-06-03T12:03:21.277Z,38.6
2018-06-03T12:04:31.046Z,38.91
2018-06-03T12:05:41.079Z,39.26
2018-06-03T12:06:51.113Z,39.48
2018-06-03T12:07:59.811Z,39.86
2018-06-03T12:09:09.575Z,40.16
2018-06-03T12:10:19.619Z,40.34
2018-06-03T12:11:29.121Z,40.52
2018-06-03T12:12:39.164Z,40.57
2018-06-03T12:13:48.936Z,40.7
2018-06-03T12:14:58.440Z,40.98
2018-06-03T12:16:08.482Z,41.12
2018-06-03T12:17:18.256Z,41.53
2018-06-03T12:18:27.755Z,41.61
2018-06-03T12:19:37.795Z,41.8
2018-06-03T12:20:47.565Z,41.95
2018-06-03T12:21:57.387Z,42.2
2018-06-03T12:23:07.166Z,42.37
2018-06-03T12:24:16.667Z,42.58
2018-06-03T12:25:26.178Z,42.8
2018-06-03T12:26:35.946Z,42.74
2018-06-03T12:27:45.816Z,42.71
2018-06-03T12:28:55.321Z,42.84
2018-06-03T12:30:05.094Z,42.89
2018-06-03T12:31:14.887Z,43.16
2018-06-03T12:32:24.926Z,43.31
2018-06-03T12:33:34.977Z,43.07
2018-06-03T12:34:45.011Z,42.9
2018-06-03T12:35:54.514Z,42.99
2018-06-03T12:37:04.050Z,43.02
2018-06-03T12:38:13.552Z,43.22
2018-06-03T12:39:23.591Z,43.44
2018-06-03T12:40:33.674Z,43.31
2018-06-03T12:41:43.452Z,43.51
2018-06-03T12:42:53.307Z,43.54
2018-06-03T12:44:02.807Z,43.66
2018-06-03T12:45:12.844Z,43.82
2018-06-03T12:46:22.882Z,43.76
2018-06-03T12:47:32.384Z,43.75
2018-06-03T12:48:42.158Z,43.49
2018-06-03T12:49:52.200Z,43.38
2018-06-03T12:51:01.704Z,43.18
2018-06-03T12:52:11.745Z,43.24
2018-06-03T12:53:21.248Z,42.92
2018-06-03T12:54:31.016Z,43.24
2018-06-03T12:55:41.047Z,43.24
2018-06-03T12:56:51.099Z,43.43
2018-06-03T12:58:00.883Z,43.43
2018-06-03T12:59:10.920Z,43.56
2018-06-03T13:00:20.690Z,43.31
2018-06-03T13:01:30.458Z,43.32
2018-06-03T13:02:40.223Z,43.19
2018-06-03T13:03:50.258Z,43.28
2018-06-03T13:05:00.030Z,43.18
2018-06-03T13:06:09.279Z,43.07
2018-06-03T13:07:18.790Z,42.86
2018-06-03T13:08:28.834Z,42.28
2018-06-03T13:09:38.604Z,41.91
2018-06-03T13:10:48.643Z,42.05
2018-06-03T13:11:58.462Z,42.03
2018-06-03T13:13:08.692Z,41.81
2018-06-03T13:14:18.757Z,41.42
2018-06-03T13:15:28.792Z,41.08
2018-06-03T13:16:38.564Z,40.76
2018-06-03T13:17:48.064Z,40.34
2018-06-03T13:18:57.871Z,40.46
2018-06-03T13:20:07.642Z,39.61
2018-06-03T13:21:17.708Z,39.15
2018-06-03T13:22:27.750Z,38.82
2018-06-03T13:23:37.784Z,38.84
2018-06-03T13:24:47.815Z,38.87
2018-06-03T13:25:57.852Z,38.63
2018-06-03T13:27:07.872Z,38.31
2018-06-03T13:28:17.900Z,37.98
2018-06-03T13:29:27.978Z,38.31
2018-06-03T13:30:38.007Z,38.47
2018-06-03T13:31:48.038Z,38.65
2018-06-03T13:32:57.821Z,38.92
2018-06-03T13:34:07.862Z,39.2
2018-06-03T13:35:17.896Z,39.57
2018-06-03T13:36:27.926Z,40.12
2018-06-03T13:37:38.101Z,40.62
2018-06-03T13:38:47.856Z,41
2018-06-03T13:39:57.620Z,41.15
2018-06-03T13:41:07.133Z,41.05
2018-06-03T13:42:17.166Z,41.07
2018-06-03T13:43:27.201Z,41.05
2018-06-03T13:44:37.244Z,41.26
2018-06-03T13:45:47.273Z,41.86
2018-06-03T13:46:56.770Z,42.33
2018-06-03T13:48:06.534Z,42.93
2018-06-03T13:49:15.766Z,43.18
2018-06-03T13:50:25.812Z,43.35
2018-06-03T13:51:35.711Z,43.82
2018-06-03T13:52:45.755Z,44.18
2018-06-03T13:53:55.529Z,44.5
2018-06-03T13:55:05.031Z,45.08
2018-06-03T13:56:14.265Z,44.8
2018-06-03T13:57:24.305Z,44.5
2018-06-03T13:58:34.073Z,44.1
2018-06-03T13:59:44.117Z,43.75
2018-06-03T14:00:54.149Z,43.75
2018-06-03T14:02:04.045Z,43.85
2018-06-03T14:03:13.811Z,44.03
2018-06-03T14:04:23.579Z,44.13
2018-06-03T14:05:33.345Z,43.36
2018-06-03T14:06:42.847Z,43.05
2018-06-03T14:07:52.616Z,42.49
2018-06-03T14:09:02.651Z,42.07
2018-06-03T14:10:12.152Z,41.45
2018-06-03T14:11:21.924Z,41.45
2018-06-03T14:12:31.957Z,41
2018-06-03T14:13:41.719Z,40.77
2018-06-03T14:14:51.487Z,40.35
2018-06-03T14:16:01.538Z,39.93
2018-06-03T14:17:11.036Z,39.48
2018-06-03T14:18:20.275Z,39.46
2018-06-03T14:19:30.189Z,39.1
2018-06-03T14:20:40.044Z,38.81
2018-06-03T14:21:49.807Z,38.27
2018-06-03T14:22:59.304Z,37.86
2018-06-03T14:24:08.538Z,37.83
2018-06-03T14:25:18.574Z,37.5
2018-06-03T14:26:28.785Z,37.29
2018-06-03T14:27:38.817Z,37.03
2018-06-03T14:28:48.848Z,36.89
2018-06-03T14:29:58.883Z,36.72
2018-06-03T14:31:08.373Z,36.55
2018-06-03T14:32:17.860Z,36.25
2018-06-03T14:33:27.900Z,35.98
2018-06-03T14:34:37.931Z,35.63
2018-06-03T14:35:47.713Z,35.47
2018-06-03T14:36:56.947Z,35.37
2018-06-03T14:38:06.709Z,35.42
2018-06-03T14:39:16.738Z,35.75
2018-06-03T14:40:26.780Z,35.96
2018-06-03T14:41:37.056Z,35.94
2018-06-03T14:42:46.550Z,35.88
2018-06-03T14:43:56.317Z,35.81
2018-06-03T14:45:06.077Z,35.6
2018-06-03T14:46:15.863Z,35.47
2018-06-03T14:47:26.038Z,35.5
2018-06-03T14:48:35.796Z,35.3
2018-06-03T14:49:45.829Z,35.16
2018-06-03T14:50:55.856Z,35.08
2018-06-03T14:52:05.890Z,35
2018-06-03T14:53:15.663Z,35.45
2018-06-03T14:54:25.450Z,35.64
2018-06-03T14:55:35.476Z,35.64
2018-06-03T14:56:45.243Z,35.64
2018-06-03T14:57:54.739Z,35.86
2018-06-03T14:59:04.742Z,36.05
2018-06-03T15:00:14.505Z,36.57
2018-06-03T15:01:24.647Z,37.04
2018-06-03T15:02:34.858Z,37.61
2018-06-03T15:03:44.888Z,37.8
2018-06-03T15:04:54.949Z,37.86